Terminal Aerodrome Forecast
Issued by NWS Charleston, WV

Current Version | Previous Version | Text Only | Print | Product List | Glossary Off
Versions: 1 2 3 4 5 6 7 8 9 10 11 12 13 14 15 16 17 18 19 20 21 22 23

000
FTUS41 KRLX 160714 AAA
TAFCRW
TAF AMD
KCRW 160714Z 1607/1706 25006KT 6SM -DZ BKN009 OVC020
     FM161000 25006KT P6SM OVC015
     FM161330 25006KT P6SM BKN025=

USA.gov is the U.S. government's official web portal to all federal, state and local government web resources and services.